Time;durP1;ratioP1;P1;durP2;ratioP2;P2;SDS_P1;SDS_P2;PMS_P1;PMS_P2;Temp;Humidity;BMP_temperature;BMP_pressure;BME280_temperature;BME280_humidity;BME280_pressure;Samples;Min_cycle;Max_cycle;Signal;HPM_P1;HPM_P2
2022/11/18 00:01:36;;;;;;;1.42;1.25;;;;;;;5.50;100.00;98637.41;6199175;28;20043;-73
2022/11/18 00:04:36;;;;;;;3.22;1.75;;;;;;;5.36;100.00;98629.69;6199062;28;20073;-72
2022/11/18 00:07:37;;;;;;;1.75;1.35;;;;;;;5.49;100.00;98629.75;6217273;28;20485;-73
2022/11/18 00:10:39;;;;;;;1.88;1.63;;;;;;;5.38;100.00;98625.25;6205556;28;20073;-72
2022/11/18 00:17:01;;;;;;;3.55;1.70;;;;;;;5.52;100.00;98620.03;6222576;28;20066;-72
2022/11/18 00:20:02;;;;;;;8.10;3.20;;;;;;;5.37;100.00;98613.22;6222181;28;20524;-73
2022/11/18 00:23:03;;;;;;;3.75;1.90;;;;;;;5.40;100.00;98613.06;6221396;28;20046;-73
2022/11/18 00:26:12;;;;;;;1.15;1.05;;;;;;;5.40;100.00;98611.28;6222236;28;20042;-74
2022/11/18 00:29:13;;;;;;;1.73;0.95;;;;;;;5.44;100.00;98615.34;6325251;27;20058;-74
2022/11/18 00:32:14;;;;;;;2.85;1.40;;;;;;;5.30;100.00;98615.38;6222991;28;20562;-73
2022/11/18 00:35:15;;;;;;;3.17;1.98;;;;;;;5.30;100.00;98605.03;6221777;28;20050;-73
2022/11/18 00:38:15;;;;;;;2.50;1.85;;;;;;;5.33;100.00;98614.34;6222826;28;20526;-72
2022/11/18 00:41:16;;;;;;;4.53;2.97;;;;;;;5.42;100.00;98601.66;6221269;28;20111;-73
2022/11/18 00:44:17;;;;;;;2.67;1.80;;;;;;;5.46;100.00;98602.31;6222607;28;20501;-73
2022/11/18 00:47:17;;;;;;;1.58;1.45;;;;;;;5.42;100.00;98598.25;6222845;28;20045;-74
2022/11/18 00:50:18;;;;;;;1.45;1.25;;;;;;;5.41;100.00;98612.94;6221545;28;20050;-73
2022/11/18 00:53:20;;;;;;;2.28;1.33;;;;;;;5.28;100.00;98598.28;6220484;28;20042;-74
2022/11/18 00:56:21;;;;;;;13.05;1.90;;;;;;;5.41;100.00;98602.59;6220939;28;20054;-73
2022/11/18 00:59:21;;;;;;;2.85;1.52;;;;;;;5.33;100.00;98597.06;6220472;28;20142;-72
2022/11/18 01:02:22;;;;;;;1.45;1.17;;;;;;;5.26;100.00;98606.16;6220377;28;20121;-72
2022/11/18 01:05:23;;;;;;;1.55;1.38;;;;;;;5.22;100.00;98600.31;6222055;28;20065;-72
2022/11/18 01:08:24;;;;;;;1.83;1.23;;;;;;;5.36;100.00;98598.66;6221966;28;20042;-73
2022/11/18 01:14:47;;;;;;;2.33;1.77;;;;;;;5.42;100.00;98598.25;6221850;28;20070;-72
2022/11/18 01:17:47;;;;;;;8.45;3.20;;;;;;;5.41;100.00;98591.41;6221792;28;20046;-72
2022/11/18 01:20:48;;;;;;;4.50;2.40;;;;;;;5.42;100.00;98593.91;6220149;28;20092;-72
2022/11/18 01:23:49;;;;;;;12.15;5.68;;;;;;;5.38;100.00;98587.28;6220945;28;20074;-72
2022/11/18 01:26:50;;;;;;;47.67;15.85;;;;;;;5.25;100.00;98581.22;6220136;28;20069;-72
2022/11/18 01:29:51;;;;;;;13.88;6.38;;;;;;;5.19;100.00;98576.44;6220610;28;20073;-72
2022/11/18 01:32:51;;;;;;;18.20;8.15;;;;;;;5.28;100.00;98575.84;6204096;28;20128;-73
2022/11/18 01:35:55;;;;;;;36.63;14.70;;;;;;;5.27;100.00;98573.34;6221626;28;20508;-72
2022/11/18 01:38:56;;;;;;;8.40;4.22;;;;;;;5.27;100.00;98569.00;6220339;28;20038;-72
2022/11/18 01:41:57;;;;;;;1.25;1.15;;;;;;;5.34;100.00;98559.94;6203831;28;20119;-72
2022/11/18 01:45:16;;;;;;;2.60;1.48;;;;;;;5.32;100.00;98551.44;6220215;28;20120;-73
2022/11/18 01:48:32;;;;;;;3.80;1.83;;;;;;;5.34;100.00;98541.00;6221697;28;20398;-73
2022/11/18 01:51:37;;;;;;;1.75;1.17;;;;;;;5.37;100.00;98533.84;6221758;28;20423;-72
2022/11/18 01:54:42;;;;;;;2.00;1.27;;;;;;;5.33;100.00;98534.97;6219825;28;20063;-72
2022/11/18 01:57:48;;;;;;;1.52;1.42;;;;;;;5.22;100.00;98527.91;6221153;28;20048;-72
2022/11/18 02:00:49;;;;;;;1.75;1.40;;;;;;;5.35;100.00;98532.31;6221037;28;20049;-72
2022/11/18 02:03:51;;;;;;;1.63;1.40;;;;;;;5.41;100.00;98527.56;6221173;28;20060;-72
2022/11/18 02:06:54;;;;;;;1.13;0.98;;;;;;;5.40;100.00;98527.69;6219812;28;20377;-72
2022/11/18 02:09:56;;;;;;;;;;;;;;;5.45;100.00;98530.78;6221258;28;20042;-73
2022/11/18 02:12:58;;;;;;;1.50;1.08;;;;;;;5.50;100.00;98518.41;6219782;28;20433;-73
2022/11/18 02:16:14;;;;;;;1.92;1.55;;;;;;;5.57;100.00;98524.00;6220846;28;20042;-73
2022/11/18 02:19:49;;;;;;;1.15;1.05;;;;;;;5.68;100.00;98515.53;6219114;28;20038;-73
2022/11/18 02:22:59;;;;;;;5.45;1.45;;;;;;;5.65;100.00;98509.63;6219875;28;20046;-73
2022/11/18 02:26:11;;;;;;;1.70;1.50;;;;;;;5.67;100.00;98506.13;6219729;28;20054;-73
2022/11/18 02:29:37;;;;;;;3.13;1.60;;;;;;;5.67;100.00;98501.78;6220894;28;20046;-73
2022/11/18 02:32:49;;;;;;;2.03;1.70;;;;;;;5.72;100.00;98507.47;6220609;28;20044;-73
2022/11/18 02:36:00;;;;;;;6.60;4.90;;;;;;;5.60;100.00;98521.22;6220957;28;20038;-73
2022/11/18 02:39:07;;;;;;;1.73;1.60;;;;;;;5.49;100.00;98526.25;6203016;28;20053;-72
2022/11/18 02:42:11;;;;;;;4.18;2.97;;;;;;;5.50;100.00;98526.16;6220424;28;20115;-73
2022/11/18 02:45:16;;;;;;;3.35;3.05;;;;;;;5.65;100.00;98530.34;6219188;28;20486;-73
2022/11/18 02:48:21;;;;;;;13.35;7.10;;;;;;;5.63;100.00;98528.78;6218886;28;20054;-73
2022/11/18 02:51:28;;;;;;;6.18;3.38;;;;;;;5.61;100.00;98525.47;6218355;28;20073;-73
2022/11/18 02:54:31;;;;;;;6.15;2.88;;;;;;;5.63;100.00;98527.03;6219076;28;20065;-73
2022/11/18 02:57:34;;;;;;;8.02;3.35;;;;;;;5.52;100.00;98523.47;6321621;27;20421;-74
2022/11/18 03:00:35;;;;;;;4.82;2.10;;;;;;;5.72;100.00;98525.59;6219352;28;20088;-74
2022/11/18 03:03:36;;;;;;;3.63;2.88;;;;;;;5.70;100.00;98530.03;6220249;28;20075;-74
2022/11/18 03:06:44;;;;;;;3.65;2.10;;;;;;;5.68;100.00;98524.13;6220038;28;20046;-73
2022/11/18 03:09:49;;;;;;;3.95;2.28;;;;;;;5.76;100.00;98523.63;6220114;28;20046;-74
2022/11/18 03:13:00;;;;;;;7.05;3.25;;;;;;;5.79;100.00;98526.03;6219897;28;20050;-73
2022/11/18 03:16:08;;;;;;;3.80;2.63;;;;;;;5.90;100.00;98533.91;6219883;28;20539;-74
2022/11/18 03:19:33;;;;;;;2.53;1.85;;;;;;;5.88;100.00;98534.94;6220111;28;20050;-73
2022/11/18 03:22:33;;;;;;;3.05;1.90;;;;;;;5.92;100.00;98544.16;6219802;28;20068;-74
2022/11/18 03:26:05;;;;;;;3.22;2.08;;;;;;;5.82;100.00;98538.75;6219843;28;20053;-74
2022/11/18 03:29:14;;;;;;;2.38;1.73;;;;;;;5.92;100.00;98524.28;6219811;28;20073;-73
2022/11/18 03:32:23;;;;;;;2.20;1.50;;;;;;;5.92;100.00;98521.69;6304503;28;20056;-73
2022/11/18 03:35:27;;;;;;;3.40;1.75;;;;;;;5.85;100.00;98500.56;6219485;28;20485;-73
2022/11/18 03:38:33;;;;;;;1.67;1.30;;;;;;;5.86;100.00;98503.97;6321488;27;20080;-73
2022/11/18 03:41:39;;;;;;;2.75;2.03;;;;;;;5.90;100.00;98500.25;6219653;28;20409;-73
2022/11/18 03:44:45;;;;;;;3.20;1.80;;;;;;;6.00;100.00;98500.50;6218362;28;20065;-73
2022/11/18 03:47:53;;;;;;;3.08;1.73;;;;;;;5.98;100.00;98492.00;6218218;28;20096;-73
2022/11/18 03:51:05;;;;;;;2.20;1.80;;;;;;;6.03;100.00;98479.56;6219293;28;20489;-73
2022/11/18 03:54:12;;;;;;;3.73;2.27;;;;;;;6.02;100.00;98468.41;6219202;28;20038;-73
2022/11/18 03:57:19;;;;;;;3.58;2.25;;;;;;;5.93;100.00;98456.06;6218344;28;20085;-72
2022/11/18 04:00:20;;;;;;;4.80;2.65;;;;;;;6.03;100.00;98456.28;6217903;28;20088;-71
2022/11/18 04:03:25;;;;;;;2.20;1.98;;;;;;;6.05;100.00;98438.88;6219181;28;20074;-73
2022/11/18 04:06:46;;;;;;;5.43;2.25;;;;;;;6.09;100.00;98448.09;6217363;28;20053;-72
2022/11/18 04:10:10;;;;;;;2.42;2.00;;;;;;;6.10;100.00;98478.25;6216691;28;20046;-72
2022/11/18 04:13:20;;;;;;;2.10;1.77;;;;;;;6.18;100.00;98480.31;6217439;28;20490;-72
2022/11/18 04:16:23;;;;;;;3.75;2.05;;;;;;;6.26;100.00;98483.22;6303449;28;20046;-73
2022/11/18 04:19:24;;;;;;;3.00;2.15;;;;;;;6.20;100.00;98486.22;6217662;28;20390;-72
2022/11/18 04:22:25;;;;;;;3.60;2.10;;;;;;;6.35;100.00;98482.56;6217529;28;20049;-73
2022/11/18 04:25:26;;;;;;;2.47;1.83;;;;;;;6.38;100.00;98484.97;6217792;28;20054;-74
2022/11/18 04:28:26;;;;;;;3.33;2.38;;;;;;;6.49;100.00;98489.41;6217716;28;20533;-74
2022/11/18 04:31:27;;;;;;;4.68;2.08;;;;;;;6.51;100.00;98491.91;6217651;28;20046;-73
2022/11/18 04:34:29;;;;;;;2.40;1.98;;;;;;;6.47;100.00;98491.28;6217614;28;20433;-73
2022/11/18 04:37:30;;;;;;;2.95;2.28;;;;;;;6.47;100.00;98483.50;6217308;28;20448;-72
2022/11/18 04:40:31;;;;;;;5.13;2.75;;;;;;;6.52;100.00;98481.41;6218599;28;20052;-72
2022/11/18 04:43:31;;;;;;;2.95;1.98;;;;;;;6.59;100.00;98479.22;6221272;28;20467;-72
2022/11/18 04:46:32;;;;;;;2.88;1.92;;;;;;;6.56;100.00;98489.81;6221321;28;20099;-72
2022/11/18 04:49:34;;;;;;;3.53;2.15;;;;;;;6.57;100.00;98483.66;6324849;27;20118;-73
2022/11/18 04:52:34;;;;;;;4.65;2.33;;;;;;;6.55;100.00;98470.84;6307688;28;20060;-73
2022/11/18 04:55:36;;;;;;;4.82;3.17;;;;;;;6.60;100.00;98466.16;6222125;28;20057;-74
2022/11/18 04:58:37;;;;;;;6.43;3.35;;;;;;;6.69;100.00;98469.03;6323986;27;20080;-72
2022/11/18 05:01:40;;;;;;;3.40;2.33;;;;;;;6.73;100.00;98481.66;6222385;28;20046;-73
2022/11/18 05:04:41;;;;;;;5.70;3.28;;;;;;;6.76;100.00;98484.06;6222486;28;20132;-72
2022/11/18 05:07:41;;;;;;;6.10;3.33;;;;;;;6.81;100.00;98479.34;6222330;28;20503;-72
2022/11/18 05:10:42;;;;;;;7.32;4.05;;;;;;;6.90;100.00;98474.47;6220905;28;20056;-72
2022/11/18 05:13:43;;;;;;;6.30;3.38;;;;;;;6.98;100.00;98470.41;6220961;28;20042;-72
2022/11/18 05:16:44;;;;;;;5.43;3.50;;;;;;;6.96;100.00;98464.50;6220758;28;20046;-73
2022/11/18 05:19:44;;;;;;;7.03;3.55;;;;;;;6.89;100.00;98460.69;6204479;28;20069;-73
2022/11/18 05:22:45;;;;;;;5.18;2.97;;;;;;;7.02;100.00;98448.50;6220861;28;20079;-73
2022/11/18 05:25:48;;;;;;;7.32;4.07;;;;;;;7.08;100.00;98444.63;6220477;28;20069;-72
2022/11/18 05:28:49;;;;;;;6.72;4.05;;;;;;;7.13;100.00;98441.72;6220951;28;20121;-72
2022/11/18 05:31:50;;;;;;;11.10;5.30;;;;;;;7.19;100.00;98434.31;6220858;28;20046;-72
2022/11/18 05:34:51;;;;;;;9.00;4.68;;;;;;;7.25;100.00;98440.81;6221103;28;20119;-72
2022/11/18 05:37:51;;;;;;;6.63;4.30;;;;;;;7.24;100.00;98437.38;6201580;28;20048;-74
2022/11/18 05:40:52;;;;;;;9.77;5.30;;;;;;;7.28;100.00;98435.41;6298394;28;20082;-72
2022/11/18 05:43:53;;;;;;;10.95;4.95;;;;;;;7.29;100.00;98433.63;6204470;28;20133;-72
2022/11/18 05:46:54;;;;;;;10.18;5.22;;;;;;;7.27;100.00;98441.53;6220180;28;20050;-72
2022/11/18 05:49:54;;;;;;;13.05;6.15;;;;;;;7.39;100.00;98447.56;6203181;28;20050;-72
2022/11/18 05:52:55;;;;;;;11.30;5.90;;;;;;;7.47;100.00;98451.28;6200317;28;20043;-72
2022/11/18 05:56:03;;;;;;;11.68;6.43;;;;;;;7.52;100.00;98453.53;6216003;28;20081;-72
2022/11/18 05:59:04;;;;;;;13.32;6.80;;;;;;;7.58;100.00;98458.28;6195342;28;20133;-72
2022/11/18 06:02:13;;;;;;;17.52;6.90;;;;;;;7.64;100.00;98447.44;6195156;28;20478;-72
2022/11/18 06:05:15;;;;;;;10.13;5.93;;;;;;;7.69;100.00;98459.25;6193331;28;20050;-71
2022/11/18 06:08:19;;;;;;;11.93;6.93;;;;;;;7.74;100.00;98464.91;6278518;28;20050;-72
2022/11/18 06:11:20;;;;;;;15.38;6.80;;;;;;;7.76;100.00;98450.91;6194321;28;20042;-72
2022/11/18 06:14:25;;;;;;;14.75;7.22;;;;;;;7.70;100.00;98459.16;6193624;28;20045;-72
2022/11/18 06:17:34;;;;;;;14.63;7.20;;;;;;;7.66;100.00;98455.13;6194133;28;20038;-72
2022/11/18 06:20:39;;;;;;;14.93;6.75;;;;;;;7.64;100.00;98462.19;6177782;28;20133;-72
2022/11/18 06:23:41;;;;;;;14.43;7.70;;;;;;;7.71;100.00;98452.16;6193970;28;20046;-73
2022/11/18 06:26:42;;;;;;;26.50;9.35;;;;;;;7.72;100.00;98452.06;6193904;28;20050;-72
2022/11/18 06:29:43;;;;;;;15.57;6.80;;;;;;;7.74;100.00;98455.38;6193755;28;20058;-73
2022/11/18 06:32:44;;;;;;;9.63;5.53;;;;;;;7.69;100.00;98457.47;6195214;28;20038;-72
2022/11/18 06:35:45;;;;;;;11.57;6.78;;;;;;;7.75;100.00;98456.19;6194016;28;20091;-73
2022/11/18 06:38:45;;;;;;;14.45;6.45;;;;;;;7.73;100.00;98463.28;6193719;28;20058;-72
2022/11/18 06:41:46;;;;;;;21.60;7.30;;;;;;;7.66;100.00;98457.72;6194761;28;20035;-72
2022/11/18 06:44:47;;;;;;;10.18;6.28;;;;;;;7.63;100.00;98469.13;6193652;28;20046;-73
2022/11/18 06:47:47;;;;;;;14.35;5.80;;;;;;;7.71;100.00;98458.19;6194862;28;20042;-73
2022/11/18 06:50:48;;;;;;;16.63;7.55;;;;;;;7.65;100.00;98459.47;6194730;28;20592;-73
2022/11/18 06:53:49;;;;;;;11.48;6.60;;;;;;;7.73;100.00;98473.66;6193368;28;20456;-73
2022/11/18 06:56:50;;;;;;;9.48;5.45;;;;;;;7.75;100.00;98463.97;6194616;28;20057;-73
2022/11/18 06:59:51;;;;;;;16.38;6.65;;;;;;;7.74;100.00;98467.50;6193473;28;20043;-74
2022/11/18 07:02:51;;;;;;;14.68;6.25;;;;;;;7.85;100.00;98457.97;6194605;28;20501;-74
2022/11/18 07:05:52;;;;;;;11.80;6.80;;;;;;;7.81;100.00;98443.56;6194204;28;20046;-74
2022/11/18 07:08:53;;;;;;;13.07;6.82;;;;;;;7.90;100.00;98462.81;6193167;28;20054;-74
2022/11/18 07:11:56;;;;;;;15.55;6.53;;;;;;;7.91;100.00;98459.28;6193183;28;20541;-74
2022/11/18 07:14:57;;;;;;;12.98;7.47;;;;;;;7.96;100.00;98469.34;6193168;28;20117;-73
2022/11/18 07:17:58;;;;;;;15.48;6.60;;;;;;;8.01;100.00;98467.19;6192876;28;20068;-72
2022/11/18 07:21:04;;;;;;;15.52;6.55;;;;;;;7.99;100.00;98472.53;6194218;28;20042;-73
2022/11/18 07:24:07;;;;;;;12.32;6.90;;;;;;;7.93;100.00;98465.19;6194346;28;20073;-73
2022/11/18 07:27:07;;;;;;;24.85;8.70;;;;;;;7.94;100.00;98459.06;6193005;28;20062;-72
2022/11/18 07:30:09;;;;;;;25.25;8.15;;;;;;;7.97;100.00;98445.00;6192983;28;20053;-73
2022/11/18 07:33:09;;;;;;;12.05;6.38;;;;;;;7.94;100.00;98442.66;6200777;28;20438;-72
2022/11/18 07:36:13;;;;;;;11.07;6.88;;;;;;;7.90;100.00;98449.00;6195376;28;20042;-71
2022/11/18 07:39:13;;;;;;;11.13;5.30;;;;;;;7.97;100.00;98450.19;6175785;28;20054;-72
2022/11/18 07:42:14;;;;;;;11.52;5.75;;;;;;;7.99;100.00;98461.28;6192063;28;20375;-72
2022/11/18 07:45:15;;;;;;;12.50;6.78;;;;;;;7.70;100.00;98455.69;6193250;28;20486;-72
2022/11/18 07:48:16;;;;;;;18.58;6.53;;;;;;;7.12;100.00;98456.44;6192078;28;20091;-71
2022/11/18 07:51:20;;;;;;;14.15;6.13;;;;;;;6.89;100.00;98462.44;6191891;28;20494;-72
2022/11/18 07:54:23;;;;;;;13.10;6.28;;;;;;;6.68;100.00;98464.81;6193405;28;20091;-72
2022/11/18 07:57:24;;;;;;;11.68;5.90;;;;;;;6.80;100.00;98461.34;6193667;28;20051;-74
2022/11/18 08:00:25;;;;;;;16.50;5.97;;;;;;;6.70;100.00;98449.97;6192548;28;20107;-73
2022/11/18 08:03:26;;;;;;;11.65;6.35;;;;;;;6.83;100.00;98461.13;6192607;28;20129;-72
2022/11/18 08:06:27;;;;;;;16.33;8.13;;;;;;;6.90;100.00;98466.69;6192448;28;20042;-73
2022/11/18 08:09:27;;;;;;;13.13;7.63;;;;;;;6.68;100.00;98473.41;6176163;28;20559;-73
2022/11/18 08:12:31;;;;;;;14.60;7.97;;;;;;;6.53;100.00;98479.66;6192182;28;20054;-73
2022/11/18 08:15:32;;;;;;;17.33;7.45;;;;;;;6.54;100.00;98479.53;6192210;28;20046;-73
2022/11/18 08:18:33;;;;;;;12.40;7.22;;;;;;;6.61;100.00;98474.75;6197639;28;20046;-73
2022/11/18 08:21:33;;;;;;;16.08;6.93;;;;;;;6.72;100.00;98480.03;6197627;28;20053;-73
2022/11/18 08:24:34;;;;;;;17.90;9.00;;;;;;;6.74;100.00;98479.94;6196259;28;20050;-73
2022/11/18 08:27:35;;;;;;;14.45;7.88;;;;;;;6.67;100.00;98471.72;6282167;28;20050;-73
2022/11/18 08:30:36;;;;;;;15.32;6.38;;;;;;;6.68;100.00;98470.00;6180009;28;20447;-73
2022/11/18 08:33:37;;;;;;;14.13;6.65;;;;;;;6.63;100.00;98471.13;6196051;28;20046;-74
2022/11/18 08:36:38;;;;;;;6.80;4.95;;;;;;;6.65;100.00;98474.44;6196315;28;20042;-74
2022/11/18 08:39:39;;;;;;;12.82;8.48;;;;;;;6.60;100.00;98466.16;6298693;28;20049;-74
2022/11/18 08:42:39;;;;;;;12.15;6.03;;;;;;;6.56;100.00;98472.47;6197329;28;20043;-74
2022/11/18 08:45:40;;;;;;;12.13;5.18;;;;;;;6.26;100.00;98467.69;6196050;28;20074;-74
2022/11/18 08:48:41;;;;;;;13.85;6.80;;;;;;;6.19;100.00;98480.19;6197416;28;20546;-73
2022/11/18 08:51:44;;;;;;;11.38;6.30;;;;;;;6.19;100.00;98479.38;6197031;28;20042;-74
2022/11/18 08:54:47;;;;;;;35.70;13.30;;;;;;;6.39;100.00;98478.03;6281040;28;20074;-73
2022/11/18 08:57:48;;;;;;;28.52;16.02;;;;;;;6.43;100.00;98474.28;6298306;28;20046;-74
2022/11/18 09:00:49;;;;;;;18.55;8.63;;;;;;;6.35;100.00;98467.03;6195650;28;20048;-73
2022/11/18 09:03:50;;;;;;;22.30;10.00;;;;;;;6.44;100.00;98470.75;6195705;28;20047;-73
2022/11/18 09:06:51;;;;;;;57.13;19.13;;;;;;;6.33;100.00;98483.63;6179438;28;20050;-73
2022/11/18 09:09:52;;;;;;;106.88;32.15;;;;;;;6.42;100.00;98486.41;6196982;28;20498;-73
2022/11/18 09:12:52;;;;;;;35.08;13.15;;;;;;;6.51;100.00;98476.34;6195462;28;20100;-74
2022/11/18 09:15:57;;;;;;;17.80;8.65;;;;;;;6.56;100.00;98479.44;6195534;28;20388;-73
2022/11/18 09:18:59;;;;;;;37.58;14.48;;;;;;;6.48;100.00;98463.59;6195469;28;20053;-73
2022/11/18 09:22:00;;;;;;;37.35;15.85;;;;;;;6.43;100.00;98456.97;6196553;28;20050;-73
2022/11/18 09:25:00;;;;;;;34.20;19.08;;;;;;;6.55;100.00;98452.69;6195338;28;20046;-73
2022/11/18 09:28:01;;;;;;;28.15;12.88;;;;;;;6.72;100.00;98446.31;6178761;28;20137;-73
2022/11/18 09:31:11;;;;;;;19.00;8.68;;;;;;;6.84;100.00;98440.28;6195144;28;20474;-73
2022/11/18 09:34:12;;;;;;;14.57;6.22;;;;;;;6.93;100.00;98431.00;6195038;28;20053;-73
2022/11/18 09:37:13;;;;;;;25.67;5.88;;;;;;;7.00;100.00;98423.59;6196345;28;20034;-73
2022/11/18 09:40:17;;;;;;;17.80;7.18;;;;;;;6.99;100.00;98406.41;6196306;28;20042;-73
2022/11/18 09:43:27;;;;;;;25.75;10.70;;;;;;;6.92;100.00;98400.84;6194791;28;20418;-71
2022/11/18 09:46:37;;;;;;;41.70;18.13;;;;;;;6.92;100.00;98405.19;6196069;28;20049;-73
2022/11/18 09:49:46;;;;;;;47.63;20.80;;;;;;;6.95;100.00;98399.78;6194786;28;20053;-73
2022/11/18 09:53:05;;;;;;;15.80;8.95;;;;;;;7.03;100.00;98408.66;6195954;28;20042;-73
2022/11/18 09:56:13;;;;;;;13.88;7.15;;;;;;;7.19;100.00;98405.78;6194563;28;20055;-72
2022/11/18 09:59:16;;;;;;;20.60;7.97;;;;;;;7.24;100.00;98406.25;6194834;28;20053;-74
2022/11/18 10:02:41;;;;;;;17.08;8.82;;;;;;;7.25;100.00;98394.94;6178379;28;20085;-73
2022/11/18 10:05:45;;;;;;;19.35;9.18;;;;;;;7.32;100.00;98384.94;6195901;28;20540;-73
2022/11/18 10:09:05;;;;;;;15.60;8.00;;;;;;;7.40;100.00;98389.56;6194520;28;20047;-74
2022/11/18 10:12:32;;;;;;;13.85;6.05;;;;;;;7.54;100.00;98380.75;6195572;28;20038;-73
2022/11/18 10:15:55;;;;;;;12.10;6.47;;;;;;;7.54;100.00;98376.38;6194177;28;20046;-74
2022/11/18 10:19:23;;;;;;;11.48;6.03;;;;;;;7.46;100.00;98368.34;6178034;28;20065;-73
2022/11/18 10:22:39;;;;;;;13.63;7.50;;;;;;;7.42;100.00;98369.53;6195514;28;20548;-74
2022/11/18 10:25:39;;;;;;;24.08;9.13;;;;;;;7.51;100.00;98350.66;6195443;28;20054;-74
2022/11/18 10:28:40;;;;;;;23.42;10.88;;;;;;;7.55;100.00;98341.69;6178179;28;20141;-74
2022/11/18 10:32:12;;;;;;;22.35;9.60;;;;;;;7.65;100.00;98345.25;6193989;28;20065;-72
2022/11/18 10:35:24;;;;;;;50.53;22.77;;;;;;;7.69;100.00;98343.25;6177607;28;20054;-72
2022/11/18 10:38:25;;;;;;;19.88;8.93;;;;;;;7.85;100.00;98342.91;6194702;28;20042;-72
2022/11/18 10:41:26;;;;;;;118.05;54.40;;;;;;;7.85;100.00;98330.75;6177189;28;20057;-72
2022/11/18 10:44:34;;;;;;;28.10;15.23;;;;;;;7.97;100.00;98323.78;6194837;28;20557;-72
2022/11/18 10:47:35;;;;;;;19.95;9.27;;;;;;;8.02;100.00;98321.63;6195159;28;20121;-74
2022/11/18 10:50:39;;;;;;;21.77;8.52;;;;;;;8.05;100.00;98320.56;6193829;28;20042;-74
2022/11/18 10:53:42;;;;;;;20.92;10.60;;;;;;;8.15;100.00;98320.66;6193676;28;20070;-73
2022/11/18 10:57:12;;;;;;;23.00;10.57;;;;;;;8.21;100.00;98325.38;6177349;28;20050;-73
2022/11/18 11:00:43;;;;;;;19.20;10.60;;;;;;;8.15;100.00;98321.50;6182358;28;20046;-74
2022/11/18 11:04:03;;;;;;;17.40;8.98;;;;;;;8.27;100.00;98317.09;6193565;28;20078;-73
2022/11/18 11:07:35;;;;;;;15.43;7.38;;;;;;;8.35;100.00;98312.13;6194717;28;20494;-74
2022/11/18 11:10:36;;;;;;;32.47;14.02;;;;;;;8.46;100.00;98306.94;6278211;28;20057;-73
2022/11/18 11:13:42;;;;;;;50.00;22.40;;;;;;;8.40;100.00;98284.03;6194428;28;20046;-73
2022/11/18 11:16:53;;;;;;;30.70;14.02;;;;;;;8.27;100.00;98278.94;6193398;28;20042;-72
2022/11/18 11:20:09;;;;;;;40.17;16.73;;;;;;;8.17;100.00;98264.22;6176716;28;20053;-72
2022/11/18 11:23:14;;;;;;;45.50;19.27;;;;;;;8.14;100.00;98280.06;6194097;28;20475;-71
2022/11/18 11:26:38;;;;;;;38.65;16.75;;;;;;;8.24;100.00;98286.19;6197053;28;20042;-72
2022/11/18 11:30:10;;;;;;;20.00;10.48;;;;;;;8.30;100.00;98293.50;6185747;28;20102;-71
2022/11/18 11:33:49;;;;;;;28.70;12.88;;;;;;;8.46;100.00;98287.91;6206628;28;20066;-71
2022/11/18 11:37:11;;;;;;;14.80;7.85;;;;;;;8.47;100.00;98286.97;6246700;28;20053;-71
2022/11/18 11:40:25;;;;;;;19.02;8.13;;;;;;;8.50;100.00;98281.50;6259743;28;20437;-71
2022/11/18 11:43:33;;;;;;;21.17;8.27;;;;;;;8.41;100.00;98279.66;6191606;28;20394;-71
2022/11/18 11:50:52;;;;;;;15.70;6.75;;;;;;;8.30;100.00;98280.50;6193960;28;20043;-71
2022/11/18 11:54:08;;;;;;;19.13;7.65;;;;;;;8.31;100.00;98279.53;6190484;28;20050;-71
2022/11/18 11:57:11;;;;;;;14.52;6.97;;;;;;;8.40;100.00;98277.97;6215785;28;20054;-71
2022/11/18 12:00:18;;;;;;;22.95;8.10;;;;;;;8.41;100.00;98271.88;6222700;28;20066;-72
2022/11/18 12:03:47;;;;;;;17.52;7.72;;;;;;;8.38;100.00;98269.47;6308177;28;20054;-75
2022/11/18 12:06:51;;;;;;;18.70;6.68;;;;;;;8.28;100.00;98261.59;6185600;28;20061;-74
2022/11/18 12:10:04;;;;;;;20.75;9.25;;;;;;;8.33;100.00;98256.03;6197064;28;20057;-74
2022/11/18 12:13:23;;;;;;;19.23;7.50;;;;;;;8.28;100.00;98262.44;6287511;28;20144;-74
2022/11/18 12:16:45;;;;;;;20.42;8.98;;;;;;;8.34;100.00;98255.91;6204915;28;20254;-73
2022/11/18 12:19:46;;;;;;;19.52;8.13;;;;;;;8.34;100.00;98252.47;6205093;28;20053;-73
2022/11/18 12:23:10;;;;;;;24.73;9.85;;;;;;;8.35;100.00;98265.34;6204717;28;20054;-74
2022/11/18 12:26:33;;;;;;;29.25;9.77;;;;;;;8.32;100.00;98263.00;6221046;28;20129;-74
2022/11/18 12:29:54;;;;;;;19.15;7.25;;;;;;;8.26;100.00;98242.72;6220967;28;20064;-72
2022/11/18 12:32:56;;;;;;;17.90;8.20;;;;;;;8.32;100.00;98246.56;6220759;28;20042;-72
2022/11/18 12:35:56;;;;;;;17.40;7.03;;;;;;;8.34;100.00;98239.47;6221679;28;20120;-73
2022/11/18 12:39:19;;;;;;;17.67;7.57;;;;;;;8.40;100.00;98232.03;6220753;28;20490;-73
2022/11/18 12:45:57;;;;;;;25.60;11.73;;;;;;;8.37;100.00;98213.25;6221850;28;20049;-74
2022/11/18 12:49:21;;;;;;;17.73;10.07;;;;;;;8.32;100.00;98211.03;6189176;28;20072;-73
2022/11/18 12:52:30;;;;;;;19.25;8.90;;;;;;;8.30;100.00;98202.53;6199876;28;20398;-73
2022/11/18 12:55:32;;;;;;;16.67;8.05;;;;;;;8.18;100.00;98208.72;6192822;28;20137;-73
2022/11/18 12:58:34;;;;;;;15.73;7.43;;;;;;;8.14;100.00;98204.72;6281307;28;20391;-72
2022/11/18 13:01:34;;;;;;;18.52;7.05;;;;;;;7.99;100.00;98207.59;6179405;28;20082;-73
2022/11/18 13:04:36;;;;;;;19.20;6.90;;;;;;;8.04;100.00;98212.44;6196858;28;20069;-73
2022/11/18 13:18:18;;;;;;;21.38;8.50;;;;;;;8.09;100.00;98210.28;6196995;28;20068;-74
2022/11/18 13:24:49;;;;;;;29.42;12.10;;;;;;;8.03;100.00;98203.81;6196566;28;20061;-74
2022/11/18 13:28:04;;;;;;;18.50;11.60;;;;;;;7.95;100.00;98195.81;6195207;28;20047;-74
2022/11/18 13:31:11;;;;;;;15.98;9.32;;;;;;;7.99;100.00;98197.22;6195102;28;20042;-74
2022/11/18 13:34:20;;;;;;;19.73;8.13;;;;;;;8.04;100.00;98189.06;6208596;28;20141;-73
2022/11/18 13:37:27;;;;;;;20.45;7.53;;;;;;;8.04;100.00;98194.25;6195223;28;20058;-73
2022/11/18 13:40:36;;;;;;;13.35;6.38;;;;;;;8.05;100.00;98193.28;6202478;28;20456;-74
2022/11/18 13:43:37;;;;;;;15.90;5.78;;;;;;;7.96;100.00;98188.84;6207229;28;20073;-74
2022/11/18 13:46:40;;;;;;;12.73;5.63;;;;;;;7.94;100.00;98180.34;6297161;28;20058;-74
2022/11/18 13:50:03;;;;;;;13.00;6.68;;;;;;;7.94;100.00;98183.75;6201637;28;20466;-74
2022/11/18 13:53:24;;;;;;;13.88;6.90;;;;;;;7.95;100.00;98169.84;6194968;28;20072;-73
2022/11/18 13:56:29;;;;;;;11.82;6.97;;;;;;;7.91;100.00;98170.19;6194565;28;20051;-73
2022/11/18 13:59:32;;;;;;;12.13;7.10;;;;;;;7.97;100.00;98170.53;6279943;28;20611;-73
2022/11/18 14:02:39;;;;;;;11.00;5.75;;;;;;;7.74;100.00;98167.19;6194511;28;20073;-73
2022/11/18 14:05:40;;;;;;;11.82;6.53;;;;;;;7.69;100.00;98160.72;6209059;28;20470;-73
2022/11/18 14:08:44;;;;;;;10.18;5.80;;;;;;;7.54;100.00;98160.97;6198115;28;20046;-74
2022/11/18 14:12:06;;;;;;;10.45;5.28;;;;;;;7.45;100.00;98165.13;6200799;28;20057;-73
2022/11/18 14:15:33;;;;;;;7.60;4.83;;;;;;;7.42;100.00;98152.38;6218780;28;20178;-73
2022/11/18 14:18:36;;;;;;;10.23;4.38;;;;;;;7.32;100.00;98150.63;6218671;28;20079;-73
2022/11/18 14:21:37;;;;;;;;;;;;;;;7.50;100.00;98150.97;6202727;28;20057;-73
2022/11/18 14:24:37;;;;;;;5.60;3.53;;;;;;;7.37;100.00;98151.91;6218517;28;20277;-73
2022/11/18 14:27:48;;;;;;;4.97;3.25;;;;;;;7.15;100.00;98152.75;6219692;28;20437;-73
2022/11/18 14:31:03;;;;;;;6.93;3.03;;;;;;;7.05;100.00;98150.03;6218553;28;20504;-73
2022/11/18 14:34:24;;;;;;;8.35;4.78;;;;;;;7.10;100.00;98148.84;6219473;28;20075;-73
2022/11/18 14:37:26;;;;;;;14.45;5.35;;;;;;;7.06;100.00;98156.88;6218368;28;20042;-73
2022/11/18 14:40:27;;;;;;;10.27;4.38;;;;;;;6.96;100.00;98160.28;6219612;28;20047;-73
2022/11/18 14:43:28;;;;;;;4.93;3.35;;;;;;;6.74;100.00;98171.47;6218208;28;20614;-73
2022/11/18 14:46:30;;;;;;;4.65;2.40;;;;;;;6.71;100.00;98179.47;6218012;28;20042;-73
2022/11/18 14:49:31;;;;;;;7.80;4.75;;;;;;;6.55;100.00;98182.38;6201771;28;20058;-72
2022/11/18 14:52:32;;;;;;;8.55;5.68;;;;;;;6.60;100.00;98191.44;6217828;28;20106;-73
2022/11/18 14:55:35;;;;;;;6.22;3.70;;;;;;;6.57;100.00;98178.72;6199110;28;20057;-72
2022/11/18 14:58:36;;;;;;;4.00;2.67;;;;;;;6.49;100.00;98181.06;6218760;28;20041;-73